Stanley, Canada
Current Conditions -  °F | °C
As of 10:00 PM on Saturday 25 Oct 2014 (Local Time) from CYFC Reporting Station
Overcast Overcast  
Wind Chill: 40°   Ceiling: 4500
Heat Index: 43°   Visibility: 9mi
Dew Point: 41°   Wind: 5mph
Humidity: 93%   Direction: 50°NE
Pressure: 29.56"   Gusts: NA
Location:  46.28°N, 66.73°W
Report Text: CYFC 260100Z AUTO 05004KT 9SM FEW010 SCT037 OVC045 06/05 A2956 RMK SLP012
Loading
Personal Weather Stations






























Interactive Weather Map
Tropical Storm Tracking
New forecast layout! Learn more

10-Day Weather Forecast

Advertisements
Track Severe Weather on mobile